createdAt,value
2024-01-24T00:00:40.473Z,1.44
2024-01-24T00:03:08.593Z,1.56
2024-01-24T00:05:36.583Z,1.65
2024-01-24T00:08:04.848Z,1.70
2024-01-24T00:10:32.743Z,1.72
2024-01-24T00:13:00.773Z,1.71
2024-01-24T00:15:28.679Z,1.67
2024-01-24T00:17:58.014Z,1.64
2024-01-24T00:20:26.009Z,1.63
2024-01-24T00:22:53.890Z,1.67
2024-01-24T00:25:21.731Z,1.61
2024-01-24T00:27:49.719Z,1.54
2024-01-24T00:30:17.715Z,1.55
2024-01-24T00:32:45.650Z,1.59
2024-01-24T00:35:14.998Z,1.57
2024-01-24T00:37:42.997Z,1.60
2024-01-24T00:40:11.966Z,1.43
2024-01-24T00:42:44.043Z,1.36
2024-01-24T00:45:13.067Z,1.35
2024-01-24T00:47:41.556Z,1.26
2024-01-24T00:50:10.483Z,1.33
2024-01-24T00:52:40.044Z,1.40
2024-01-24T00:55:08.572Z,1.53
2024-01-24T00:57:36.545Z,1.64
2024-01-24T01:00:07.173Z,1.69
2024-01-24T01:02:35.167Z,1.72
2024-01-24T01:05:05.293Z,1.74
2024-01-24T01:07:33.372Z,1.74
2024-01-24T01:10:02.691Z,1.74
2024-01-24T01:12:31.814Z,1.73
2024-01-24T01:14:59.768Z,1.77
2024-01-24T01:17:27.740Z,1.75
2024-01-24T01:19:55.641Z,1.65
2024-01-24T01:22:23.568Z,1.53
2024-01-24T01:24:51.526Z,1.50
2024-01-24T01:27:20.828Z,1.54
2024-01-24T01:29:48.770Z,1.48
2024-01-24T01:32:16.903Z,1.22
2024-01-24T01:34:44.933Z,1.12
2024-01-24T01:37:13.474Z,1.13
2024-01-24T01:39:41.437Z,1.12
2024-01-24T01:42:09.510Z,1.25
2024-01-24T01:44:45.214Z,1.37
2024-01-24T01:47:14.172Z,1.44
2024-01-24T01:49:45.364Z,1.29
2024-01-24T01:52:13.811Z,1.28
2024-01-24T01:54:44.059Z,1.09
2024-01-24T01:57:13.115Z,0.82
2024-01-24T01:59:43.654Z,0.52
2024-01-24T02:02:12.762Z,0.50
2024-01-24T02:04:40.816Z,0.62
2024-01-24T02:07:08.907Z,0.80
2024-01-24T02:09:37.158Z,0.97
2024-01-24T02:12:05.740Z,0.89
2024-01-24T02:14:34.112Z,0.75
2024-01-24T02:17:03.373Z,0.66
2024-01-24T02:19:31.244Z,0.64
2024-01-24T02:21:59.226Z,0.62
2024-01-24T02:24:28.852Z,0.70
2024-01-24T02:26:56.768Z,0.80
2024-01-24T02:29:24.660Z,0.93
2024-01-24T02:31:52.634Z,1.08
2024-01-24T02:34:20.617Z,1.20
2024-01-24T02:36:48.677Z,1.30
2024-01-24T02:39:16.734Z,1.37
2024-01-24T02:41:46.763Z,1.45
2024-01-24T02:44:14.945Z,1.55
2024-01-24T02:46:42.942Z,1.60
2024-01-24T02:49:11.047Z,1.54
2024-01-24T02:51:39.140Z,1.32
2024-01-24T02:54:07.428Z,1.24
2024-01-24T02:56:36.640Z,1.23
2024-01-24T02:59:06.584Z,1.26
2024-01-24T03:01:34.614Z,1.35
2024-01-24T03:04:02.674Z,1.38
2024-01-24T03:06:30.708Z,1.50
2024-01-24T03:08:59.936Z,1.53
2024-01-24T03:11:28.037Z,1.53
2024-01-24T03:13:56.056Z,1.54
2024-01-24T03:16:25.341Z,1.53
2024-01-24T03:18:53.624Z,1.58
2024-01-24T03:21:21.903Z,1.63
2024-01-24T03:23:49.839Z,1.72
2024-01-24T03:26:18.077Z,1.76
2024-01-24T03:28:46.010Z,1.80
2024-01-24T03:31:14.175Z,1.79
2024-01-24T03:33:43.649Z,1.87
2024-01-24T03:36:12.103Z,1.80
2024-01-24T03:38:40.213Z,1.93
2024-01-24T03:41:08.224Z,1.93
2024-01-24T03:43:36.170Z,1.89
2024-01-24T03:46:04.182Z,1.88
2024-01-24T03:48:32.264Z,1.88
2024-01-24T03:51:01.810Z,1.87
2024-01-24T03:53:29.760Z,1.89
2024-01-24T03:55:57.620Z,1.91
2024-01-24T03:58:25.513Z,1.84
2024-01-24T04:00:56.377Z,1.84
2024-01-24T04:03:24.518Z,1.87
2024-01-24T04:05:52.563Z,1.84
2024-01-24T04:08:21.917Z,1.79
2024-01-24T04:10:49.845Z,1.82
2024-01-24T04:13:17.772Z,1.78
2024-01-24T04:15:45.868Z,1.67
2024-01-24T04:18:14.120Z,1.69
2024-01-24T04:20:42.333Z,1.66
2024-01-24T04:23:10.361Z,1.60
2024-01-24T04:25:39.647Z,1.59
2024-01-24T04:28:07.863Z,1.54
2024-01-24T04:30:35.852Z,1.61
2024-01-24T04:33:04.643Z,1.69
2024-01-24T04:35:32.747Z,1.79
2024-01-24T04:38:00.760Z,1.88
2024-01-24T04:40:28.639Z,1.95
2024-01-24T04:42:58.136Z,1.96
2024-01-24T04:45:26.218Z,1.97
2024-01-24T04:47:54.226Z,1.96
2024-01-24T04:50:23.186Z,2.02
2024-01-24T04:52:51.248Z,2.02
2024-01-24T04:55:19.368Z,2.07
2024-01-24T04:57:47.401Z,2.05
2024-01-24T05:00:17.437Z,2.09
2024-01-24T05:02:45.560Z,2.07
2024-01-24T05:05:13.530Z,2.07
2024-01-24T05:07:41.607Z,2.10
2024-01-24T05:10:10.362Z,2.16
2024-01-24T05:12:38.460Z,2.22
2024-01-24T05:15:09.256Z,2.26
2024-01-24T05:17:41.212Z,2.28
2024-01-24T05:20:12.064Z,2.27
2024-01-24T05:22:40.442Z,2.24
2024-01-24T05:25:08.935Z,2.27
2024-01-24T05:27:36.881Z,2.22
2024-01-24T05:30:15.791Z,2.18
2024-01-24T05:32:49.512Z,2.14
2024-01-24T05:35:19.684Z,2.16
2024-01-24T05:37:47.903Z,2.15
2024-01-24T05:40:16.127Z,2.12
2024-01-24T05:42:44.083Z,2.17
2024-01-24T05:45:12.807Z,2.21
2024-01-24T05:47:40.971Z,2.19
2024-01-24T05:50:14.253Z,2.15
2024-01-24T05:52:44.058Z,2.18
2024-01-24T05:55:13.117Z,2.15
2024-01-24T05:57:41.693Z,2.18
2024-01-24T06:00:11.807Z,2.15
2024-01-24T06:02:39.888Z,2.22
2024-01-24T06:05:10.169Z,2.25
2024-01-24T06:07:39.790Z,2.35
2024-01-24T06:10:09.815Z,2.29
2024-01-24T06:12:37.795Z,2.24
2024-01-24T06:15:06.708Z,2.15
2024-01-24T06:17:35.563Z,2.00
2024-01-24T06:20:03.702Z,1.97
2024-01-24T06:22:31.758Z,1.96
2024-01-24T06:25:07.235Z,2.05
2024-01-24T06:27:36.549Z,2.17
2024-01-24T06:30:18.482Z,2.21
2024-01-24T06:32:50.884Z,2.28
2024-01-24T06:35:19.156Z,2.23
2024-01-24T06:37:47.187Z,2.15
2024-01-24T06:40:16.862Z,2.18
2024-01-24T06:42:44.936Z,2.09
2024-01-24T06:45:13.671Z,2.06
2024-01-24T06:47:41.861Z,1.91
2024-01-24T06:50:14.278Z,1.89
2024-01-24T06:52:42.472Z,1.95
2024-01-24T06:55:10.917Z,1.91
2024-01-24T06:57:40.221Z,1.99
2024-01-24T07:00:09.758Z,2.04
2024-01-24T07:02:38.492Z,2.07
2024-01-24T07:05:07.346Z,2.07
2024-01-24T07:07:35.428Z,2.20
2024-01-24T07:10:03.519Z,2.33
2024-01-24T07:12:31.942Z,2.41
2024-01-24T07:15:01.299Z,2.47
2024-01-24T07:17:29.314Z,2.52
2024-01-24T07:19:57.378Z,2.55
2024-01-24T07:22:25.361Z,2.62
2024-01-24T07:24:53.385Z,2.65
2024-01-24T07:27:21.439Z,2.69
2024-01-24T07:29:50.629Z,2.73
2024-01-24T07:32:19.958Z,2.74
2024-01-24T07:34:48.010Z,2.75
2024-01-24T07:37:16.748Z,2.79
2024-01-24T07:39:44.685Z,2.78
2024-01-24T07:42:12.742Z,2.80
2024-01-24T07:44:40.705Z,2.86
2024-01-24T07:47:08.687Z,2.87
2024-01-24T07:49:40.326Z,2.84
2024-01-24T07:52:08.616Z,2.68
2024-01-24T07:54:36.727Z,2.57
2024-01-24T07:57:05.294Z,2.63
2024-01-24T07:59:33.430Z,2.61
2024-01-24T08:02:03.795Z,2.67
2024-01-24T08:04:33.317Z,2.68
2024-01-24T08:07:02.854Z,2.73
2024-01-24T08:09:31.013Z,2.77
2024-01-24T08:11:59.163Z,2.60
2024-01-24T08:14:27.224Z,2.63
2024-01-24T08:17:04.947Z,2.60
2024-01-24T08:19:32.940Z,2.53
2024-01-24T08:22:03.198Z,2.43
2024-01-24T08:24:31.638Z,2.34
2024-01-24T08:27:00.449Z,2.33
2024-01-24T08:29:36.491Z,2.30
2024-01-24T08:32:07.119Z,2.28
2024-01-24T08:34:37.586Z,2.27
2024-01-24T08:37:08.068Z,2.44
2024-01-24T08:39:36.099Z,2.54
2024-01-24T08:42:04.401Z,2.63
2024-01-24T08:44:32.409Z,2.67
2024-01-24T08:47:00.431Z,2.69
2024-01-24T08:49:28.482Z,2.76
2024-01-24T08:51:57.816Z,2.88
2024-01-24T08:54:27.332Z,2.96
2024-01-24T08:56:56.086Z,3.00
2024-01-24T08:59:24.059Z,2.98
2024-01-24T09:01:56.418Z,2.90
2024-01-24T09:04:24.577Z,2.83
2024-01-24T09:06:53.162Z,2.79
2024-01-24T09:09:22.155Z,2.83
2024-01-24T09:11:56.791Z,2.79
2024-01-24T09:14:25.552Z,2.79
2024-01-24T09:16:53.843Z,2.92
2024-01-24T09:19:22.822Z,2.92
2024-01-24T09:21:51.586Z,3.00
2024-01-24T09:24:20.016Z,3.10
2024-01-24T09:26:48.187Z,3.09
2024-01-24T09:29:17.504Z,3.07
2024-01-24T09:31:47.478Z,3.11
2024-01-24T09:34:15.978Z,3.17
2024-01-24T09:36:44.227Z,3.24
2024-01-24T09:39:13.276Z,3.28
2024-01-24T09:41:43.872Z,3.32
2024-01-24T09:44:14.162Z,3.35
2024-01-24T09:46:44.042Z,3.38
2024-01-24T09:49:12.563Z,3.48
2024-01-24T09:51:42.921Z,3.52
2024-01-24T09:54:11.149Z,3.50
2024-01-24T09:56:40.370Z,3.43
2024-01-24T09:59:09.977Z,3.38
2024-01-24T10:01:40.613Z,3.39
2024-01-24T10:04:10.452Z,3.41
2024-01-24T10:06:40.760Z,3.38
2024-01-24T10:09:09.406Z,3.30
2024-01-24T10:11:37.565Z,3.25
2024-01-24T10:14:06.097Z,3.29
2024-01-24T10:16:34.224Z,3.28
2024-01-24T10:19:02.341Z,3.36
2024-01-24T10:21:31.933Z,3.42
2024-01-24T10:24:00.535Z,3.49
2024-01-24T10:26:30.910Z,3.52
2024-01-24T10:28:58.971Z,3.55
2024-01-24T10:31:26.941Z,3.57
2024-01-24T10:33:56.574Z,3.60
2024-01-24T10:36:28.018Z,3.59
2024-01-24T10:39:05.134Z,3.57
2024-01-24T10:41:38.088Z,3.50
2024-01-24T10:44:10.708Z,3.49
2024-01-24T10:46:39.422Z,3.45
2024-01-24T10:49:07.993Z,3.33
2024-01-24T10:51:36.461Z,3.35
2024-01-24T10:54:07.012Z,3.32
2024-01-24T10:56:36.500Z,3.28
2024-01-24T10:59:05.827Z,3.27
2024-01-24T11:01:34.333Z,3.24
2024-01-24T11:04:08.937Z,3.36
2024-01-24T11:06:44.275Z,3.38
2024-01-24T11:09:25.236Z,3.35
2024-01-24T11:11:55.283Z,3.38
2024-01-24T11:14:33.236Z,3.38
2024-01-24T11:17:02.246Z,3.30
2024-01-24T11:19:32.192Z,3.42
2024-01-24T11:22:10.514Z,3.50
2024-01-24T11:24:54.206Z,3.48
2024-01-24T11:27:31.716Z,3.46
2024-01-24T11:30:01.548Z,3.49
2024-01-24T11:33:03.676Z,3.49
2024-01-24T11:35:37.125Z,3.51
2024-01-24T11:38:30.682Z,3.58
2024-01-24T11:41:03.450Z,3.60
2024-01-24T11:43:36.641Z,3.65
2024-01-24T11:46:09.034Z,3.72
2024-01-24T11:48:39.831Z,3.73
2024-01-24T11:51:10.060Z,3.87
2024-01-24T11:53:38.206Z,4.02
2024-01-24T11:56:08.741Z,4.15
2024-01-24T11:58:36.810Z,4.21
2024-01-24T12:01:06.329Z,4.16
2024-01-24T12:03:34.617Z,4.14
2024-01-24T12:06:03.562Z,4.23
2024-01-24T12:08:31.644Z,4.29
2024-01-24T12:11:00.084Z,4.47
2024-01-24T12:13:30.818Z,4.50
2024-01-24T12:16:00.554Z,4.46
2024-01-24T12:18:29.543Z,4.42
2024-01-24T12:21:02.161Z,4.48
2024-01-24T12:23:31.315Z,4.58
2024-01-24T12:25:59.808Z,4.68
2024-01-24T12:28:30.823Z,4.67
2024-01-24T12:30:59.752Z,4.67
2024-01-24T12:33:32.897Z,4.61
2024-01-24T12:36:08.289Z,4.58
2024-01-24T12:38:37.510Z,4.49
2024-01-24T12:41:06.333Z,4.41
2024-01-24T12:43:37.760Z,4.27
2024-01-24T12:46:10.581Z,4.20
2024-01-24T12:48:39.652Z,4.13
2024-01-24T12:51:08.362Z,4.16
2024-01-24T12:53:36.523Z,4.21
2024-01-24T12:56:05.229Z,4.24
2024-01-24T12:58:34.333Z,4.26
2024-01-24T13:01:03.784Z,4.31
2024-01-24T13:03:32.162Z,4.27
2024-01-24T13:06:00.683Z,4.28
2024-01-24T13:08:28.869Z,4.26
2024-01-24T13:10:57.657Z,4.17
2024-01-24T13:13:25.832Z,4.15
2024-01-24T13:15:54.943Z,4.16
2024-01-24T13:18:25.146Z,4.22
2024-01-24T13:20:53.104Z,4.27
2024-01-24T13:23:21.887Z,4.22
2024-01-24T13:25:50.556Z,4.16
2024-01-24T13:28:18.882Z,4.17
2024-01-24T13:30:46.892Z,4.13
2024-01-24T13:33:15.058Z,4.03
2024-01-24T13:35:44.669Z,4.03
2024-01-24T13:38:12.682Z,4.01
2024-01-24T13:40:40.659Z,4.01
2024-01-24T13:43:08.979Z,3.99
2024-01-24T13:45:39.883Z,3.95
2024-01-24T13:48:10.304Z,3.99
2024-01-24T13:50:38.893Z,3.96
2024-01-24T13:53:08.412Z,3.98
2024-01-24T13:55:36.458Z,4.03
2024-01-24T13:58:05.047Z,4.07
2024-01-24T14:00:33.427Z,4.13
2024-01-24T14:03:01.482Z,4.14
2024-01-24T14:05:29.497Z,4.15
2024-01-24T14:07:57.855Z,4.17
2024-01-24T14:10:27.229Z,4.19
2024-01-24T14:12:55.625Z,4.15
2024-01-24T14:15:32.974Z,4.20
2024-01-24T14:18:03.575Z,4.27
2024-01-24T14:20:31.750Z,4.30
2024-01-24T14:22:59.983Z,4.25
2024-01-24T14:25:29.258Z,4.19
2024-01-24T14:27:57.714Z,4.20
2024-01-24T14:30:26.367Z,4.22
2024-01-24T14:32:54.376Z,4.20
2024-01-24T14:35:24.162Z,4.15
2024-01-24T14:37:52.472Z,4.12
2024-01-24T14:40:20.788Z,4.12
2024-01-24T14:42:50.288Z,4.09
2024-01-24T14:45:19.029Z,4.04
2024-01-24T14:47:47.062Z,4.05
2024-01-24T14:50:15.419Z,4.01
2024-01-24T14:52:43.524Z,3.98
2024-01-24T14:55:11.955Z,3.94
2024-01-24T14:57:40.024Z,3.93
2024-01-24T15:00:11.907Z,3.88
2024-01-24T15:02:40.333Z,3.85
2024-01-24T15:05:09.556Z,3.85
2024-01-24T15:07:38.289Z,3.86
2024-01-24T15:10:08.391Z,3.88
2024-01-24T15:12:36.486Z,3.94
2024-01-24T15:15:05.199Z,4.01
2024-01-24T15:17:34.700Z,4.04
2024-01-24T15:20:04.404Z,4.06
2024-01-24T15:22:34.059Z,3.96
2024-01-24T15:25:02.328Z,3.99
2024-01-24T15:27:30.639Z,3.96
2024-01-24T15:30:00.434Z,3.88
2024-01-24T15:32:29.679Z,3.88
2024-01-24T15:34:59.351Z,3.93
2024-01-24T15:37:27.666Z,3.98
2024-01-24T15:39:55.777Z,4.02
2024-01-24T15:42:25.356Z,3.95
2024-01-24T15:44:53.377Z,3.96
2024-01-24T15:47:21.403Z,3.94
2024-01-24T15:49:49.401Z,3.96
2024-01-24T15:52:20.235Z,4.01
2024-01-24T15:54:49.412Z,4.00
2024-01-24T15:57:18.637Z,3.98
2024-01-24T15:59:46.869Z,3.95
2024-01-24T16:02:16.108Z,3.83
2024-01-24T16:04:44.248Z,3.74
2024-01-24T16:07:12.626Z,3.77
2024-01-24T16:09:42.512Z,3.69
2024-01-24T16:12:13.044Z,3.68
2024-01-24T16:14:41.634Z,3.66
2024-01-24T16:17:11.636Z,3.68
2024-01-24T16:19:40.782Z,3.74
2024-01-24T16:22:10.345Z,3.76
2024-01-24T16:24:38.876Z,3.79
2024-01-24T16:27:08.229Z,3.77
2024-01-24T16:29:36.292Z,3.72
2024-01-24T16:32:04.431Z,3.70
2024-01-24T16:34:33.031Z,3.63
2024-01-24T16:37:01.121Z,3.63
2024-01-24T16:39:29.452Z,3.68
2024-01-24T16:41:57.447Z,3.78
2024-01-24T16:44:26.910Z,3.87
2024-01-24T16:46:54.837Z,3.93
2024-01-24T16:49:23.500Z,3.97
2024-01-24T16:51:52.869Z,3.96
2024-01-24T16:54:20.875Z,3.97
2024-01-24T16:56:48.831Z,3.95
2024-01-24T16:59:16.865Z,3.94
2024-01-24T17:01:46.225Z,3.90
2024-01-24T17:04:14.452Z,3.89
2024-01-24T17:06:44.831Z,3.86
2024-01-24T17:09:14.116Z,3.85
2024-01-24T17:11:42.005Z,3.83
2024-01-24T17:14:09.921Z,3.83
2024-01-24T17:16:38.199Z,3.79
2024-01-24T17:19:07.576Z,3.73
2024-01-24T17:21:35.536Z,3.70
2024-01-24T17:24:03.583Z,3.72
2024-01-24T17:26:31.800Z,3.77
2024-01-24T17:28:59.872Z,3.82
2024-01-24T17:31:27.797Z,3.85
2024-01-24T17:33:55.823Z,3.85
2024-01-24T17:36:25.348Z,3.83
2024-01-24T17:38:55.650Z,3.81
2024-01-24T17:41:25.170Z,3.74
2024-01-24T17:43:53.280Z,3.69
2024-01-24T17:46:23.971Z,3.68
2024-01-24T17:48:52.613Z,3.64
2024-01-24T17:51:20.813Z,3.61
2024-01-24T17:53:50.137Z,3.65
2024-01-24T17:56:21.212Z,3.67
2024-01-24T17:58:50.802Z,3.65
2024-01-24T18:01:20.322Z,3.70
2024-01-24T18:03:48.586Z,3.70
2024-01-24T18:06:16.849Z,3.72
2024-01-24T18:08:44.969Z,3.72
2024-01-24T18:11:15.309Z,3.72
2024-01-24T18:13:43.259Z,3.69
2024-01-24T18:16:12.166Z,3.68
2024-01-24T18:18:40.562Z,3.60
2024-01-24T18:21:10.899Z,3.36
2024-01-24T18:23:39.331Z,3.01
2024-01-24T18:26:07.283Z,2.75
2024-01-24T18:28:36.698Z,2.81
2024-01-24T18:31:04.800Z,2.99
2024-01-24T18:33:32.946Z,3.17
2024-01-24T18:36:00.960Z,3.32
2024-01-24T18:38:28.839Z,3.38
2024-01-24T18:40:57.036Z,3.49
2024-01-24T18:43:24.974Z,3.58
2024-01-24T18:45:54.454Z,3.64
2024-01-24T18:48:23.338Z,3.70
2024-01-24T18:51:02.997Z,3.77
2024-01-24T18:53:31.571Z,3.80
2024-01-24T18:56:00.560Z,3.81
2024-01-24T18:58:30.145Z,3.78
2024-01-24T19:01:00.332Z,3.83
2024-01-24T19:03:28.860Z,3.81
2024-01-24T19:05:57.080Z,3.81
2024-01-24T19:08:25.187Z,3.75
2024-01-24T19:10:53.139Z,3.77
2024-01-24T19:13:25.248Z,3.78
2024-01-24T19:15:53.414Z,3.81
2024-01-24T19:18:25.255Z,3.86
2024-01-24T19:20:53.665Z,3.89
2024-01-24T19:23:21.654Z,3.91
2024-01-24T19:25:49.657Z,3.79
2024-01-24T19:28:18.688Z,3.70
2024-01-24T19:30:47.390Z,3.70
2024-01-24T19:33:15.564Z,3.73
2024-01-24T19:35:45.013Z,3.65
2024-01-24T19:38:13.247Z,3.54
2024-01-24T19:40:42.045Z,3.58
2024-01-24T19:43:10.078Z,3.59
2024-01-24T19:45:38.042Z,3.62
2024-01-24T19:48:06.792Z,3.54
2024-01-24T19:50:34.744Z,3.54
2024-01-24T19:53:04.776Z,3.58
2024-01-24T19:55:32.824Z,3.61
2024-01-24T19:58:00.769Z,3.61
2024-01-24T20:00:28.803Z,3.58
2024-01-24T20:02:58.092Z,3.52
2024-01-24T20:05:26.113Z,3.49
2024-01-24T20:07:54.094Z,3.47
2024-01-24T20:10:23.521Z,3.51
2024-01-24T20:12:51.506Z,3.52
2024-01-24T20:15:19.986Z,3.58
2024-01-24T20:17:49.064Z,3.60
2024-01-24T20:20:18.468Z,3.61
2024-01-24T20:22:46.679Z,3.67
2024-01-24T20:25:14.640Z,3.69
2024-01-24T20:27:44.052Z,3.62
2024-01-24T20:30:12.674Z,3.69
2024-01-24T20:32:45.637Z,3.69
2024-01-24T20:35:21.128Z,3.69
2024-01-24T20:37:49.076Z,3.69
2024-01-24T20:40:17.591Z,3.69
2024-01-24T20:42:48.831Z,3.66
2024-01-24T20:45:17.265Z,3.63
2024-01-24T20:47:45.227Z,3.64
2024-01-24T20:50:13.344Z,3.68
2024-01-24T20:52:41.350Z,3.75
2024-01-24T20:55:09.393Z,3.83
2024-01-24T20:57:37.389Z,3.94
2024-01-24T21:00:09.830Z,4.03
2024-01-24T21:02:38.088Z,4.11
2024-01-24T21:05:07.126Z,4.18
2024-01-24T21:07:35.403Z,4.16
2024-01-24T21:10:03.443Z,4.26
2024-01-24T21:12:31.394Z,4.33
2024-01-24T21:14:59.680Z,4.42
2024-01-24T21:17:29.114Z,4.41
2024-01-24T21:19:57.248Z,4.33
2024-01-24T21:22:25.525Z,4.37
2024-01-24T21:24:53.613Z,4.39
2024-01-24T21:27:21.520Z,4.33
2024-01-24T21:29:49.379Z,4.37
2024-01-24T21:32:17.770Z,4.38
2024-01-24T21:34:47.339Z,4.38
2024-01-24T21:37:15.409Z,4.42
2024-01-24T21:39:43.640Z,4.45
2024-01-24T21:42:11.603Z,4.47
2024-01-24T21:44:39.474Z,4.49
2024-01-24T21:47:07.820Z,4.52
2024-01-24T21:49:39.178Z,4.56
2024-01-24T21:52:08.807Z,4.58
2024-01-24T21:54:36.744Z,4.61
2024-01-24T21:57:05.298Z,4.65
2024-01-24T21:59:33.946Z,4.68
2024-01-24T22:02:01.967Z,4.74
2024-01-24T22:04:30.061Z,4.82
2024-01-24T22:06:58.156Z,4.87
2024-01-24T22:09:28.855Z,4.90
2024-01-24T22:11:57.687Z,4.94
2024-01-24T22:14:26.060Z,4.93
2024-01-24T22:16:54.328Z,4.95
2024-01-24T22:19:22.327Z,4.96
2024-01-24T22:21:50.328Z,5.01
2024-01-24T22:24:18.455Z,5.07
2024-01-24T22:26:47.760Z,5.09
2024-01-24T22:29:15.737Z,5.14
2024-01-24T22:31:43.742Z,5.17
2024-01-24T22:34:11.839Z,5.19
2024-01-24T22:36:40.136Z,5.23
2024-01-24T22:39:08.106Z,5.26
2024-01-24T22:41:36.082Z,5.28
2024-01-24T22:44:05.593Z,5.31
2024-01-24T22:46:33.523Z,5.32
2024-01-24T22:49:02.648Z,5.34
2024-01-24T22:51:31.649Z,5.35
2024-01-24T22:53:59.661Z,5.36
2024-01-24T22:56:27.871Z,5.29
2024-01-24T22:58:55.737Z,5.29
2024-01-24T23:01:25.321Z,5.31
2024-01-24T23:03:53.388Z,5.35
2024-01-24T23:06:21.385Z,5.38
2024-01-24T23:08:49.331Z,5.37
2024-01-24T23:11:17.339Z,5.38
2024-01-24T23:13:45.327Z,5.45
2024-01-24T23:16:13.352Z,5.49
2024-01-24T23:18:42.817Z,5.52
2024-01-24T23:21:10.776Z,5.53
2024-01-24T23:23:40.158Z,5.55
2024-01-24T23:26:08.095Z,5.52
2024-01-24T23:28:36.055Z,5.52
2024-01-24T23:31:04.089Z,5.52
2024-01-24T23:33:34.660Z,5.54
2024-01-24T23:36:05.051Z,5.61
2024-01-24T23:38:33.586Z,5.61
2024-01-24T23:41:02.246Z,5.53
2024-01-24T23:43:30.223Z,5.76
2024-01-24T23:45:58.151Z,5.82
2024-01-24T23:48:26.603Z,5.99
2024-01-24T23:50:54.851Z,6.11
2024-01-24T23:53:24.347Z,6.17
2024-01-24T23:55:52.437Z,6.34
2024-01-24T23:58:20.421Z,6.40
